Time;durP1;ratioP1;P1;durP2;ratioP2;P2;SDS_P1;SDS_P2;PMS_P1;PMS_P2;Temp;Humidity;BMP_temperature;BMP_pressure;BME280_temperature;BME280_humidity;BME280_pressure;Samples;Min_cycle;Max_cycle;Signal;HPM_P1;HPM_P2
2022/10/10 00:01:13;;;;;;;5.63;2.80;;;6.70;99.90;;;;;;5072642;28;20202;-80
2022/10/10 00:03:40;;;;;;;5.37;3.53;;;6.60;99.90;;;;;;5073377;28;20194;-80
2022/10/10 00:06:07;;;;;;;7.07;2.90;;;6.60;99.90;;;;;;5069195;28;20227;-80
2022/10/10 00:08:34;;;;;;;6.93;4.07;;;6.60;99.90;;;;;;5066590;28;20220;-80
2022/10/10 00:11:01;;;;;;;6.17;2.87;;;6.60;99.90;;;;;;5071977;28;20202;-80
2022/10/10 00:13:28;;;;;;;4.47;2.90;;;6.70;99.90;;;;;;5067766;28;20199;-80
2022/10/10 00:15:56;;;;;;;7.23;3.00;;;6.60;99.90;;;;;;5057676;28;20566;-80
2022/10/10 00:18:23;;;;;;;5.37;2.73;;;6.60;99.90;;;;;;5070837;28;20228;-80
2022/10/10 00:20:50;;;;;;;4.00;3.10;;;6.60;99.90;;;;;;5071147;28;20202;-80
2022/10/10 00:23:17;;;;;;;4.93;2.70;;;6.50;99.90;;;;;;5073437;28;20226;-80
2022/10/10 00:25:44;;;;;;;5.30;3.10;;;6.50;99.90;;;;;;5071544;28;20190;-80
2022/10/10 00:28:11;;;;;;;5.50;2.93;;;6.60;99.90;;;;;;5072488;28;20229;-80
2022/10/10 00:30:38;;;;;;;6.57;3.00;;;6.30;99.90;;;;;;5070553;28;20206;-80
2022/10/10 00:33:06;;;;;;;4.30;3.00;;;6.40;99.90;;;;;;5072076;28;20708;-80
2022/10/10 00:35:33;;;;;;;6.23;3.20;;;6.20;99.90;;;;;;5072290;28;20206;-80
2022/10/10 00:38:00;;;;;;;5.50;3.43;;;6.00;99.90;;;;;;5072179;28;20356;-80
2022/10/10 00:40:28;;;;;;;4.37;3.10;;;5.40;99.90;;;;;;5070732;28;20202;-80
2022/10/10 00:42:54;;;;;;;6.23;3.37;;;5.50;99.90;;;;;;5072696;28;20568;-80
2022/10/10 00:45:29;;;;;;;5.43;3.33;;;5.80;99.90;;;;;;5069116;28;20198;-80
2022/10/10 00:48:00;;;;;;;6.93;3.37;;;6.10;99.90;;;;;;5071708;28;20244;-80
2022/10/10 00:50:31;;;;;;;4.67;2.83;;;6.20;99.90;;;;;;5063110;28;20195;-80
2022/10/10 00:52:59;;;;;;;6.03;2.80;;;6.20;99.90;;;;;;5065005;28;20824;-80
2022/10/10 00:55:26;;;;;;;3.47;2.90;;;6.10;99.90;;;;;;5066947;28;20227;-80
2022/10/10 00:57:53;;;;;;;5.83;2.73;;;5.80;99.90;;;;;;5072883;28;20226;-80
2022/10/10 01:00:20;;;;;;;5.00;2.97;;;5.40;99.90;;;;;;5070606;28;20195;-82
2022/10/10 01:02:47;;;;;;;4.43;2.77;;;5.50;99.90;;;;;;5071163;28;20202;-80
2022/10/10 01:05:13;;;;;;;6.77;3.17;;;5.40;99.90;;;;;;5072809;28;20540;-80
2022/10/10 01:07:42;;;;;;;5.17;2.60;;;5.10;99.90;;;;;;5070939;28;20631;-80
2022/10/10 01:10:14;;;;;;;3.53;2.60;;;5.10;99.90;;;;;;5071118;28;20206;-80
2022/10/10 01:12:53;;;;;;;6.00;2.50;;;5.10;99.90;;;;;;5071904;28;20565;-80
2022/10/10 01:15:28;;;;;;;3.53;2.93;;;5.20;99.90;;;;;;5070279;28;20630;-80
2022/10/10 01:18:03;;;;;;;3.80;2.60;;;5.20;99.90;;;;;;5071813;28;20214;-80
2022/10/10 01:20:48;;;;;;;6.30;2.90;;;5.20;99.90;;;;;;5072011;28;20654;-80
2022/10/10 01:23:52;;;;;;;6.10;3.03;;;5.30;99.90;;;;;;5071964;28;20856;-80
2022/10/10 01:26:39;;;;;;;4.67;3.00;;;5.30;99.90;;;;;;5037844;28;20225;-80
2022/10/10 01:29:12;;;;;;;5.30;3.23;;;5.20;99.90;;;;;;5071672;28;20202;-80
2022/10/10 01:31:42;;;;;;;6.93;2.90;;;5.20;99.90;;;;;;5061454;28;20202;-80
2022/10/10 01:34:18;;;;;;;4.27;2.60;;;5.30;99.90;;;;;;5070312;28;20206;-80
2022/10/10 01:36:51;;;;;;;3.63;2.90;;;5.40;99.90;;;;;;5067884;28;20218;-80
2022/10/10 01:39:23;;;;;;;3.57;2.90;;;5.50;99.90;;;;;;5052342;28;20217;-80
2022/10/10 01:41:56;;;;;;;6.67;3.03;;;5.40;99.90;;;;;;5065925;28;20200;-80
2022/10/10 01:44:24;;;;;;;3.10;2.77;;;5.40;99.90;;;;;;5063033;28;20229;-80
2022/10/10 01:46:50;;;;;;;3.27;2.57;;;5.20;99.90;;;;;;5071769;28;20229;-80
2022/10/10 01:49:18;;;;;;;4.87;2.60;;;5.20;99.90;;;;;;5072035;28;20202;-80
2022/10/10 01:52:02;;;;;;;6.03;3.00;;;5.20;99.90;;;;;;5071219;28;20198;-80
2022/10/10 01:54:39;;;;;;;4.70;2.97;;;5.30;99.90;;;;;;5071677;28;20264;-80
2022/10/10 01:57:20;;;;;;;6.20;3.10;;;5.40;99.90;;;;;;5072023;28;20236;-80
2022/10/10 01:59:58;;;;;;;5.60;3.10;;;5.40;99.90;;;;;;5056765;28;20194;-79
2022/10/10 02:02:36;;;;;;;4.13;3.10;;;5.30;99.90;;;;;;5070254;28;20206;-80
2022/10/10 02:05:08;;;;;;;5.63;3.40;;;5.50;99.90;;;;;;5053290;28;20553;-80
2022/10/10 02:07:41;;;;;;;4.83;2.70;;;5.50;99.90;;;;;;5055815;28;20257;-80
2022/10/10 02:10:11;;;;;;;6.30;2.87;;;5.70;99.90;;;;;;5068178;28;20214;-80
2022/10/10 02:12:40;;;;;;;4.77;2.37;;;6.00;99.90;;;;;;5074539;28;20198;-80
2022/10/10 02:15:11;;;;;;;5.63;2.53;;;6.20;99.90;;;;;;5075559;28;20563;-80
2022/10/10 02:17:39;;;;;;;5.93;3.17;;;7.00;99.90;;;;;;5074950;28;20356;-80
2022/10/10 02:20:09;;;;;;;4.70;2.43;;;7.20;99.90;;;;;;5074981;28;20198;-80
2022/10/10 02:22:38;;;;;;;5.73;3.13;;;7.20;99.90;;;;;;5075588;28;20655;-79
2022/10/10 02:25:06;;;;;;;5.80;3.17;;;6.70;99.90;;;;;;5074718;28;20209;-80
2022/10/10 02:27:39;;;;;;;10.60;3.57;;;6.40;99.90;;;;;;5065977;28;20229;-80
2022/10/10 02:30:09;;;;;;;6.53;3.50;;;6.20;99.90;;;;;;5069446;28;20197;-80
2022/10/10 02:32:41;;;;;;;7.43;3.07;;;6.40;99.90;;;;;;5074916;28;20695;-80
2022/10/10 02:35:12;;;;;;;5.57;3.33;;;6.40;99.90;;;;;;5068258;28;20199;-80
2022/10/10 02:37:41;;;;;;;5.97;2.93;;;6.50;99.90;;;;;;5065311;28;20225;-80
2022/10/10 02:40:10;;;;;;;7.23;3.07;;;6.40;99.90;;;;;;5062920;28;20209;-80
2022/10/10 02:42:38;;;;;;;5.27;2.80;;;6.40;99.90;;;;;;5074498;28;20316;-80
2022/10/10 02:45:06;;;;;;;4.00;2.70;;;6.40;99.90;;;;;;5072775;28;20213;-80
2022/10/10 02:47:34;;;;;;;4.90;2.87;;;6.40;99.90;;;;;;5073808;28;20616;-80
2022/10/10 02:50:01;;;;;;;4.43;2.70;;;6.40;99.90;;;;;;5073391;28;20207;-80
2022/10/10 02:52:28;;;;;;;4.43;2.63;;;6.30;99.90;;;;;;5071540;28;20194;-80
2022/10/10 02:54:55;;;;;;;4.47;3.03;;;6.40;99.90;;;;;;5072434;28;20794;-80
2022/10/10 02:57:22;;;;;;;7.83;3.07;;;6.50;99.90;;;;;;5075360;28;20241;-80
2022/10/10 02:59:48;;;;;;;6.57;2.60;;;6.60;99.90;;;;;;5072995;28;20205;-80
2022/10/10 03:02:15;;;;;;;6.67;3.30;;;6.60;99.90;;;;;;5073935;28;20293;-80
2022/10/10 03:04:44;;;;;;;5.43;2.47;;;6.80;99.90;;;;;;5075222;28;20215;-80
2022/10/10 03:07:10;;;;;;;6.00;2.83;;;6.70;99.90;;;;;;5073011;28;20230;-80
2022/10/10 03:09:37;;;;;;;3.20;2.33;;;6.90;99.90;;;;;;5073998;28;20655;-80
2022/10/10 03:12:04;;;;;;;3.73;2.67;;;6.70;99.90;;;;;;5074894;28;20202;-80
2022/10/10 03:14:31;;;;;;;5.17;2.57;;;6.60;99.90;;;;;;5074094;28;20234;-80
2022/10/10 03:16:58;;;;;;;4.40;2.60;;;6.60;99.90;;;;;;5071616;28;20613;-80
2022/10/10 03:19:26;;;;;;;5.40;2.93;;;6.40;99.90;;;;;;5067908;28;20216;-80
2022/10/10 03:21:54;;;;;;;5.13;2.80;;;6.50;99.90;;;;;;5074684;28;20198;-80
2022/10/10 03:24:20;;;;;;;8.80;3.27;;;6.30;99.90;;;;;;5074117;28;20225;-80
2022/10/10 03:26:47;;;;;;;7.20;2.87;;;6.20;99.90;;;;;;5074127;28;20590;-80
2022/10/10 03:29:14;;;;;;;3.30;2.47;;;6.00;99.90;;;;;;5074975;28;20207;-80
2022/10/10 03:31:41;;;;;;;5.57;2.53;;;5.90;99.90;;;;;;5072226;28;20202;-80
2022/10/10 03:34:07;;;;;;;8.40;3.47;;;6.00;99.90;;;;;;5074305;28;20216;-81
2022/10/10 03:36:34;;;;;;;6.23;3.13;;;6.00;99.90;;;;;;5074629;28;20240;-80
2022/10/10 03:39:03;;;;;;;6.20;2.67;;;5.90;99.90;;;;;;5073813;28;20206;-80
2022/10/10 03:41:30;;;;;;;5.53;3.10;;;6.00;99.90;;;;;;5073215;28;20233;-80
2022/10/10 03:43:57;;;;;;;3.70;2.80;;;6.00;99.90;;;;;;5073802;28;20209;-80
2022/10/10 03:46:24;;;;;;;4.43;2.90;;;6.00;99.90;;;;;;5072685;28;20199;-80
2022/10/10 03:48:50;;;;;;;6.10;3.13;;;6.00;99.90;;;;;;5074456;28;20236;-80
2022/10/10 03:51:17;;;;;;;7.53;2.80;;;6.00;99.90;;;;;;5072841;28;20202;-80
2022/10/10 03:53:44;;;;;;;5.10;2.60;;;5.90;99.90;;;;;;5074272;28;20547;-80
2022/10/10 03:56:12;;;;;;;4.80;2.70;;;5.70;99.90;;;;;;5074563;28;20212;-80
2022/10/10 03:58:39;;;;;;;4.37;2.90;;;5.80;99.90;;;;;;5074271;28;20200;-79
2022/10/10 04:01:06;;;;;;;6.73;3.00;;;5.80;99.90;;;;;;5071931;28;20194;-79
2022/10/10 04:03:32;;;;;;;7.27;3.50;;;5.70;99.90;;;;;;5056272;28;20194;-80
2022/10/10 04:05:59;;;;;;;4.60;2.77;;;5.70;99.90;;;;;;5052729;28;20203;-79
2022/10/10 04:08:27;;;;;;;6.63;3.23;;;5.60;99.90;;;;;;5053079;28;20226;-80
2022/10/10 04:10:54;;;;;;;4.37;2.90;;;5.50;99.90;;;;;;5054210;28;20214;-80
2022/10/10 04:13:24;;;;;;;4.60;3.47;;;5.60;99.90;;;;;;5073281;28;20622;-80
2022/10/10 04:15:51;;;;;;;8.10;3.57;;;5.70;99.90;;;;;;5071370;28;20288;-80
2022/10/10 04:18:18;;;;;;;6.37;3.60;;;5.60;99.90;;;;;;5073584;28;20725;-80
2022/10/10 04:20:45;;;;;;;4.80;3.20;;;5.70;99.90;;;;;;5072973;28;20202;-80
2022/10/10 04:23:11;;;;;;;5.83;3.70;;;5.60;99.90;;;;;;5072744;28;20213;-79
2022/10/10 04:25:38;;;;;;;8.40;3.13;;;5.60;99.90;;;;;;5073121;28;20213;-79
2022/10/10 04:28:05;;;;;;;4.80;2.90;;;5.50;99.90;;;;;;5072132;28;20234;-79
2022/10/10 04:30:34;;;;;;;12.80;3.80;;;5.30;99.90;;;;;;5072210;28;20202;-80
2022/10/10 04:33:01;;;;;;;22.83;19.60;;;5.50;99.90;;;;;;5072209;28;20224;-80
2022/10/10 04:35:28;;;;;;;7.73;4.20;;;5.50;99.90;;;;;;5074055;28;20208;-80
2022/10/10 04:37:55;;;;;;;7.07;3.23;;;5.50;99.90;;;;;;5073740;28;20222;-80
2022/10/10 04:40:21;;;;;;;5.50;3.30;;;5.50;99.90;;;;;;5074709;28;20190;-80
2022/10/10 04:42:48;;;;;;;10.07;3.90;;;5.40;99.90;;;;;;5075001;28;20207;-80
2022/10/10 04:45:15;;;;;;;6.67;3.57;;;5.30;99.90;;;;;;5074662;28;20213;-80
2022/10/10 04:47:43;;;;;;;6.93;3.50;;;5.10;99.90;;;;;;5074494;28;20222;-80
2022/10/10 04:50:10;;;;;;;8.63;3.27;;;5.00;99.90;;;;;;5074414;28;20216;-80
2022/10/10 04:52:37;;;;;;;8.17;3.43;;;5.10;99.90;;;;;;5074498;28;20213;-80
2022/10/10 04:55:04;;;;;;;4.47;3.00;;;5.00;99.90;;;;;;5074657;28;20264;-80
2022/10/10 04:57:31;;;;;;;10.77;3.90;;;5.00;99.90;;;;;;5074436;28;20222;-80
2022/10/10 04:59:58;;;;;;;6.93;3.50;;;5.00;99.90;;;;;;5073171;28;20198;-80
2022/10/10 05:02:25;;;;;;;5.43;3.20;;;5.00;99.90;;;;;;5073284;28;20194;-80
2022/10/10 05:04:53;;;;;;;6.73;2.97;;;5.20;99.90;;;;;;5073325;28;20554;-80
2022/10/10 05:07:20;;;;;;;6.30;3.27;;;5.10;99.90;;;;;;5073230;28;20236;-80
2022/10/10 05:09:47;;;;;;;6.17;3.67;;;5.20;99.90;;;;;;5073363;28;20248;-80
2022/10/10 05:12:13;;;;;;;7.90;3.17;;;5.60;99.90;;;;;;5072911;28;20205;-80
2022/10/10 05:14:40;;;;;;;6.30;3.03;;;5.90;99.90;;;;;;5073272;28;20650;-80
2022/10/10 05:17:07;;;;;;;6.10;2.80;;;6.40;99.90;;;;;;5074071;28;20563;-80
2022/10/10 05:19:34;;;;;;;7.30;2.60;;;6.50;99.90;;;;;;5073926;28;20618;-80
2022/10/10 05:22:02;;;;;;;5.63;3.03;;;6.40;99.90;;;;;;5073490;28;20574;-80
2022/10/10 05:24:28;;;;;;;5.07;3.13;;;6.50;99.90;;;;;;5074355;28;20225;-80
2022/10/10 05:26:55;;;;;;;4.43;2.73;;;6.60;99.90;;;;;;5073581;28;20592;-80
2022/10/10 05:29:22;;;;;;;6.30;3.60;;;6.60;99.90;;;;;;5074383;28;20222;-80
2022/10/10 05:31:49;;;;;;;6.77;4.87;;;6.50;99.90;;;;;;5073596;28;20202;-80
2022/10/10 05:34:15;;;;;;;6.80;5.83;;;6.60;99.90;;;;;;5073662;28;20685;-80
2022/10/10 05:36:42;;;;;;;6.87;4.70;;;6.60;99.90;;;;;;5073576;28;20698;-80
2022/10/10 05:39:10;;;;;;;5.23;3.50;;;6.60;99.90;;;;;;5075022;28;20217;-80
2022/10/10 05:41:37;;;;;;;6.17;3.83;;;6.70;99.90;;;;;;5077177;28;20202;-80
2022/10/10 05:44:04;;;;;;;5.97;2.93;;;6.90;99.90;;;;;;5077327;28;20209;-80
2022/10/10 05:46:31;;;;;;;7.77;2.83;;;6.90;99.90;;;;;;5077010;28;20232;-80
2022/10/10 05:48:58;;;;;;;5.17;2.50;;;7.10;99.90;;;;;;5077094;28;20218;-80
2022/10/10 05:51:25;;;;;;;5.90;2.90;;;7.10;99.90;;;;;;5076424;28;20214;-80
2022/10/10 05:53:52;;;;;;;4.33;2.57;;;7.50;99.90;;;;;;5077543;28;20290;-80
2022/10/10 05:56:20;;;;;;;3.80;2.53;;;7.50;99.90;;;;;;5081047;28;20212;-80
2022/10/10 05:58:46;;;;;;;3.73;2.70;;;7.50;99.90;;;;;;5076943;28;20688;-80
2022/10/10 06:01:13;;;;;;;4.33;2.63;;;7.40;99.90;;;;;;5076859;28;20206;-80
2022/10/10 06:03:40;;;;;;;3.33;2.30;;;7.50;99.90;;;;;;5077502;28;20215;-80
2022/10/10 06:06:07;;;;;;;4.53;2.20;;;7.50;99.90;;;;;;5077430;28;20199;-80
2022/10/10 06:08:34;;;;;;;4.27;2.63;;;7.80;99.90;;;;;;5077301;28;20261;-80
2022/10/10 06:11:03;;;;;;;5.03;2.70;;;7.80;99.90;;;;;;5076585;28;20214;-80
2022/10/10 06:13:31;;;;;;;4.30;2.73;;;8.00;99.90;;;;;;5077153;28;20198;-80
2022/10/10 06:15:58;;;;;;;3.67;2.87;;;8.10;99.90;;;;;;5072904;28;20211;-80
2022/10/10 06:18:25;;;;;;;5.37;3.13;;;8.20;99.90;;;;;;5065644;28;20224;-80
2022/10/10 06:20:52;;;;;;;5.63;2.60;;;8.40;99.90;;;;;;5072327;28;20210;-80
2022/10/10 06:23:19;;;;;;;3.03;2.60;;;8.50;99.90;;;;;;5066898;28;20202;-80
2022/10/10 06:25:46;;;;;;;3.83;2.40;;;8.50;99.90;;;;;;5059594;28;20199;-80
2022/10/10 06:28:13;;;;;;;8.17;2.73;;;8.80;99.90;;;;;;5069376;28;20230;-80
2022/10/10 06:30:42;;;;;;;6.63;3.40;;;8.80;99.90;;;;;;5055443;28;20229;-80
2022/10/10 06:33:09;;;;;;;7.30;2.70;;;8.80;99.90;;;;;;5068180;28;20202;-80
2022/10/10 06:35:39;;;;;;;4.33;2.53;;;9.00;99.90;;;;;;5076080;28;20229;-80
2022/10/10 06:38:06;;;;;;;5.67;3.13;;;9.10;99.90;;;;;;5055878;28;20565;-80
2022/10/10 06:40:33;;;;;;;7.33;2.17;;;9.10;99.90;;;;;;5054298;28;20296;-80
2022/10/10 06:43:00;;;;;;;4.90;2.30;;;9.10;99.90;;;;;;5056320;28;20214;-80
2022/10/10 06:45:27;;;;;;;3.27;2.40;;;8.80;99.90;;;;;;5056164;28;20256;-80
2022/10/10 06:47:55;;;;;;;4.77;2.47;;;9.10;99.90;;;;;;5073066;28;20227;-80
2022/10/10 06:50:22;;;;;;;4.03;3.03;;;9.10;99.90;;;;;;5075657;28;20203;-80
2022/10/10 06:52:49;;;;;;;4.60;2.33;;;9.00;99.90;;;;;;5075573;28;20658;-80
2022/10/10 06:55:16;;;;;;;5.50;2.67;;;9.00;99.90;;;;;;5075388;28;20647;-80
2022/10/10 06:57:43;;;;;;;4.17;2.10;;;9.00;99.90;;;;;;5076251;28;20226;-80
2022/10/10 07:00:11;;;;;;;5.00;2.43;;;9.00;99.90;;;;;;5076218;28;20256;-80
2022/10/10 07:02:39;;;;;;;3.63;2.17;;;8.90;99.90;;;;;;5076855;28;20209;-80
2022/10/10 07:05:10;;;;;;;4.17;2.30;;;9.00;99.90;;;;;;5075041;28;20263;-81
2022/10/10 07:07:37;;;;;;;4.67;2.70;;;9.00;99.90;;;;;;5076703;28;20226;-80
2022/10/10 07:10:05;;;;;;;5.03;2.60;;;8.90;99.90;;;;;;5076024;28;20571;-80
2022/10/10 07:12:32;;;;;;;5.40;2.70;;;8.90;99.90;;;;;;5075542;28;20221;-80
2022/10/10 07:14:58;;;;;;;5.53;2.47;;;9.00;99.90;;;;;;5056686;28;20202;-80
2022/10/10 07:17:25;;;;;;;3.83;2.50;;;9.10;99.90;;;;;;5056076;28;20234;-81
2022/10/10 07:19:52;;;;;;;3.77;2.37;;;9.20;99.90;;;;;;5056788;28;20206;-81
2022/10/10 07:22:20;;;;;;;4.33;2.47;;;9.20;99.90;;;;;;5074579;28;20225;-81
2022/10/10 07:24:47;;;;;;;4.70;2.80;;;9.20;99.90;;;;;;5073062;28;20198;-80
2022/10/10 07:27:14;;;;;;;5.43;2.50;;;9.30;99.90;;;;;;5074547;28;20230;-80
2022/10/10 07:29:41;;;;;;;4.13;2.30;;;9.30;99.90;;;;;;5074163;28;20218;-80
2022/10/10 07:32:08;;;;;;;4.63;2.30;;;9.30;99.90;;;;;;5074812;28;20614;-80
2022/10/10 07:34:36;;;;;;;3.37;2.40;;;9.40;99.90;;;;;;5074484;28;20202;-80
2022/10/10 07:37:02;;;;;;;4.33;2.57;;;9.50;99.90;;;;;;5073896;28;20248;-81
2022/10/10 07:39:31;;;;;;;6.03;2.53;;;9.50;99.90;;;;;;5075193;28;20202;-80
2022/10/10 07:41:57;;;;;;;4.57;2.17;;;9.50;99.90;;;;;;5075093;28;20293;-80
2022/10/10 07:44:24;;;;;;;5.23;3.17;;;9.70;99.90;;;;;;5075747;28;20571;-80
2022/10/10 07:46:51;;;;;;;4.70;2.57;;;10.10;99.90;;;;;;5074412;28;20225;-80
2022/10/10 07:49:18;;;;;;;5.80;2.60;;;10.00;99.90;;;;;;5074386;28;20225;-80
2022/10/10 07:51:45;;;;;;;4.77;2.40;;;10.30;99.90;;;;;;5075034;28;20680;-80
2022/10/10 07:54:11;;;;;;;2.97;2.17;;;10.80;99.90;;;;;;5073971;28;20205;-80
2022/10/10 07:56:39;;;;;;;5.30;2.57;;;11.10;99.90;;;;;;5071774;28;20321;-80
2022/10/10 07:59:06;;;;;;;3.20;2.60;;;11.60;5.60;;;;;;5053725;28;20713;-81
2022/10/10 08:01:33;;;;;;;3.70;2.60;;;11.50;1.00;;;;;;5070759;28;20202;-81
2022/10/10 08:04:00;;;;;;;4.13;2.60;;;11.60;1.00;;;;;;5073328;28;20213;-81
2022/10/10 08:06:26;;;;;;;7.00;2.50;;;11.70;1.00;;;;;;5073874;28;20214;-80
2022/10/10 08:08:53;;;;;;;4.00;2.50;;;11.60;1.00;;;;;;5073682;28;20721;-80
2022/10/10 08:11:21;;;;;;;3.27;2.27;;;11.70;1.00;;;;;;5074308;28;20670;-80
2022/10/10 08:13:50;;;;;;;5.43;2.90;;;11.80;1.00;;;;;;5074855;28;20209;-80
2022/10/10 08:16:17;;;;;;;3.33;2.27;;;11.90;1.00;;;;;;5074079;28;20207;-80
2022/10/10 08:18:44;;;;;;;5.53;2.30;;;11.90;1.00;;;;;;5074553;28;20663;-80
2022/10/10 08:21:12;;;;;;;3.60;2.50;;;11.80;1.00;;;;;;5073934;28;20212;-80
2022/10/10 08:23:40;;;;;;;7.23;2.77;;;12.00;1.00;;;;;;5074852;28;20221;-80
2022/10/10 08:26:08;;;;;;;6.73;2.60;;;11.90;1.00;;;;;;5074444;28;20202;-80
2022/10/10 08:28:36;;;;;;;4.27;2.73;;;11.90;1.00;;;;;;5074449;28;20596;-80
2022/10/10 08:31:06;;;;;;;5.60;3.13;;;12.30;99.90;;;;;;5073531;28;20202;-81
2022/10/10 08:33:34;;;;;;;5.17;2.50;;;12.20;1.00;;;;;;5074866;28;20205;-80
2022/10/10 08:36:05;;;;;;;5.23;2.67;;;12.20;1.00;;;;;;5074367;28;20574;-81
2022/10/10 08:38:31;;;;;;;6.73;3.00;;;12.20;1.00;;;;;;5073388;28;20313;-80
2022/10/10 08:41:01;;;;;;;4.07;2.70;;;12.30;1.00;;;;;;5070376;28;20202;-80
2022/10/10 08:43:33;;;;;;;6.57;2.63;;;12.40;1.00;;;;;;5054521;28;20259;-81
2022/10/10 08:46:07;;;;;;;5.40;2.83;;;12.40;1.00;;;;;;5054849;28;20211;-80
2022/10/10 08:48:38;;;;;;;2.83;2.57;;;12.50;1.00;;;;;;5062029;28;20218;-81
2022/10/10 08:51:09;;;;;;;7.23;2.73;;;12.60;1.00;;;;;;5054046;28;20206;-81
2022/10/10 08:53:41;;;;;;;5.03;2.70;;;12.80;1.00;;;;;;5054320;28;20214;-80
2022/10/10 08:56:13;;;;;;;5.57;2.50;;;13.00;99.90;;;;;;5058308;28;20202;-81
2022/10/10 08:58:45;;;;;;;9.13;3.07;;;13.30;1.00;;;;;;5073963;28;20202;-81
2022/10/10 09:01:17;;;;;;;6.87;2.93;;;13.50;1.00;;;;;;5073269;28;20198;-81
2022/10/10 09:03:49;;;;;;;4.23;2.63;;;13.40;1.00;;;;;;5074250;28;20586;-81
2022/10/10 09:06:36;;;;;;;9.57;2.87;;;13.50;1.00;;;;;;5074107;28;20209;-81
2022/10/10 09:09:14;;;;;;;3.57;2.47;;;13.50;1.00;;;;;;5066932;28;20575;-81
2022/10/10 09:11:54;;;;;;;5.50;2.67;;;13.70;1.00;;;;;;5062871;28;20260;-81
2022/10/10 09:14:33;;;;;;;4.43;2.77;;;13.90;1.00;;;;;;5053245;28;20203;-81
2022/10/10 09:17:04;;;;;;;7.53;2.80;;;13.80;1.00;;;;;;5053732;28;20225;-81
2022/10/10 09:19:42;;;;;;;3.87;2.70;;;13.70;1.00;;;;;;5052194;28;20574;-81
2022/10/10 09:22:13;;;;;;;6.70;2.30;;;13.90;1.00;;;;;;5053402;28;20203;-81
2022/10/10 09:24:46;;;;;;;4.10;2.40;;;14.00;1.00;;;;;;5052080;28;20213;-81
2022/10/10 09:27:17;;;;;;;3.97;2.47;;;14.00;1.00;;;;;;5055342;28;20225;-81
2022/10/10 09:29:47;;;;;;;3.00;2.70;;;14.10;99.90;;;;;;5068494;28;20705;-81
2022/10/10 09:32:18;;;;;;;5.77;2.70;;;14.10;1.00;;;;;;5057027;28;20209;-81
2022/10/10 09:34:50;;;;;;;3.67;2.37;;;14.20;1.00;;;;;;5065528;28;20199;-81
2022/10/10 09:37:21;;;;;;;4.93;2.70;;;14.40;99.90;;;;;;5060763;28;20230;-81
2022/10/10 09:39:52;;;;;;;5.87;2.70;;;14.70;1.00;;;;;;5051494;28;20294;-81
2022/10/10 09:42:28;;;;;;;4.80;2.60;;;14.90;99.90;;;;;;5053331;28;20597;-81
2022/10/10 09:44:55;;;;;;;5.30;2.50;;;15.30;1.00;;;;;;5053314;28;20572;-81
2022/10/10 09:47:22;;;;;;;4.73;2.60;;;15.60;99.90;;;;;;5061497;28;20222;-81
2022/10/10 09:49:50;;;;;;;5.70;2.50;;;15.90;1.00;;;;;;5072745;28;20565;-81
2022/10/10 09:52:25;;;;;;;4.27;2.70;;;16.00;1.00;;;;;;5074711;28;20414;-81
2022/10/10 09:54:56;;;;;;;6.97;2.47;;;16.20;1.00;;;;;;5074119;28;20233;-81
2022/10/10 09:57:26;;;;;;;5.77;2.57;;;16.60;1.00;;;;;;5074512;28;20226;-81
2022/10/10 09:59:53;;;;;;;3.33;2.50;;;17.10;1.00;;;;;;5073059;28;20737;-81
2022/10/10 10:02:22;;;;;;;5.68;2.88;;;17.30;1.00;;;;;;5072384;28;20293;-81
2022/10/10 10:04:51;;;;;;;5.93;2.85;;;17.20;99.90;;;;;;5072953;28;20561;-81
2022/10/10 10:07:21;;;;;;;3.28;2.60;;;17.20;99.90;;;;;;5074686;28;20592;-81
2022/10/10 10:09:50;;;;;;;4.13;2.70;;;17.40;41.70;;;;;;5074176;28;20222;-81
2022/10/10 10:12:21;;;;;;;4.18;2.92;;;17.40;1.00;;;;;;5073504;28;20667;-82
2022/10/10 10:14:49;;;;;;;6.13;2.50;;;17.40;1.00;;;;;;5072116;28;20199;-81
2022/10/10 10:17:21;;;;;;;3.20;2.50;;;17.70;1.00;;;;;;5057444;28;20222;-81
2022/10/10 10:19:48;;;;;;;5.07;2.38;;;17.70;1.00;;;;;;5053439;28;20225;-82
2022/10/10 10:22:38;;;;;;;4.35;2.75;;;17.60;1.00;;;;;;5052810;28;20191;-81
2022/10/10 10:25:31;;;;;;;5.85;2.67;;;17.80;1.00;;;;;;5048430;28;20623;-81
2022/10/10 10:28:20;;;;;;;4.43;2.45;;;18.10;1.00;;;;;;5057586;28;20699;-81
2022/10/10 10:30:47;;;;;;;7.90;2.90;;;18.10;1.00;;;;;;5057662;28;20223;-82
2022/10/10 10:33:23;;;;;;;5.32;2.53;;;18.00;1.00;;;;;;5056756;28;20207;-82
2022/10/10 10:35:58;;;;;;;3.50;2.63;;;17.90;1.00;;;;;;5057742;28;20206;-81
2022/10/10 10:38:37;;;;;;;4.28;2.65;;;18.10;1.00;;;;;;5057294;28;20222;-81
2022/10/10 10:41:09;;;;;;;3.70;2.50;;;18.20;1.00;;;;;;5055708;28;20678;-81
2022/10/10 10:43:48;;;;;;;3.63;2.50;;;18.30;1.00;;;;;;5065033;28;20203;-81
2022/10/10 10:46:26;;;;;;;4.10;2.42;;;18.20;1.00;;;;;;5060430;28;20208;-81
2022/10/10 10:49:01;;;;;;;3.80;2.60;;;18.50;1.00;;;;;;5076057;28;20198;-81
2022/10/10 10:51:42;;;;;;;3.72;2.33;;;18.50;1.00;;;;;;5077032;28;20236;-82
2022/10/10 10:54:27;;;;;;;4.05;2.33;;;18.60;1.00;;;;;;5076333;28;20573;-82
2022/10/10 10:56:56;;;;;;;7.07;2.40;;;18.40;1.00;;;;;;5076448;28;20600;-82
2022/10/10 10:59:33;;;;;;;5.32;2.80;;;18.40;1.00;;;;;;5076886;28;20206;-82
2022/10/10 11:02:20;;;;;;;4.95;2.50;;;18.30;99.90;;;;;;5077256;28;20202;-81
2022/10/10 11:05:00;;;;;;;5.53;2.50;;;18.80;99.90;;;;;;5076827;28;20213;-82
2022/10/10 11:07:32;;;;;;;6.50;2.70;;;18.90;99.90;;;;;;5076644;28;20248;-82
2022/10/10 11:10:11;;;;;;;4.97;2.65;;;18.80;99.90;;;;;;5076613;28;20573;-82
2022/10/10 11:12:50;;;;;;;4.22;2.40;;;18.80;99.90;;;;;;5077062;28;20573;-82
2022/10/10 11:15:21;;;;;;;3.95;2.95;;;18.90;99.90;;;;;;5077435;28;20293;-82
2022/10/10 11:17:55;;;;;;;5.15;2.45;;;18.70;99.90;;;;;;5076405;28;20678;-82
2022/10/10 11:20:27;;;;;;;4.90;3.17;;;18.80;99.90;;;;;;5076456;28;20202;-82
2022/10/10 11:22:59;;;;;;;4.00;2.70;;;18.90;99.90;;;;;;5076377;28;20203;-82
2022/10/10 11:25:32;;;;;;;3.33;2.28;;;19.10;99.90;;;;;;5077454;28;20210;-81
2022/10/10 11:28:03;;;;;;;6.75;2.60;;;19.00;99.90;;;;;;5076913;28;20224;-82
2022/10/10 11:30:34;;;;;;;4.43;2.35;;;19.40;99.90;;;;;;5075234;28;20230;-80
2022/10/10 11:33:07;;;;;;;3.90;2.45;;;19.10;99.90;;;;;;5079821;28;20205;-81
2022/10/10 11:35:39;;;;;;;4.70;2.50;;;19.40;99.90;;;;;;5078231;28;20206;-82
2022/10/10 11:38:14;;;;;;;4.18;2.30;;;19.10;99.90;;;;;;5077062;28;20254;-82
2022/10/10 11:40:56;;;;;;;4.78;2.22;;;19.20;99.90;;;;;;5077522;28;20204;-82
2022/10/10 11:43:37;;;;;;;7.25;2.60;;;19.40;99.90;;;;;;5078137;28;20201;-82
2022/10/10 11:46:14;;;;;;;4.20;2.50;;;19.60;99.90;;;;;;5078358;28;20273;-81
2022/10/10 11:48:51;;;;;;;5.07;2.60;;;19.80;99.90;;;;;;5082303;28;20650;-81
2022/10/10 11:51:33;;;;;;;4.28;2.15;;;19.70;99.90;;;;;;5076779;28;20232;-82
2022/10/10 11:54:05;;;;;;;5.88;2.78;;;20.00;99.90;;;;;;5076365;28;20202;-80
2022/10/10 11:56:39;;;;;;;5.45;3.10;;;19.90;99.90;;;;;;5076875;28;20218;-82
2022/10/10 11:59:13;;;;;;;2.45;2.10;;;19.90;99.90;;;;;;5075580;28;20671;-82
2022/10/10 12:01:45;;;;;;;8.73;2.60;;;20.10;99.90;;;;;;5074027;28;20198;-82
2022/10/10 12:04:12;;;;;;;6.30;2.78;;;20.10;99.90;;;;;;5076669;28;20203;-83
2022/10/10 12:06:43;;;;;;;5.13;2.75;;;20.40;99.90;;;;;;5075540;28;20272;-82
2022/10/10 12:09:14;;;;;;;9.10;3.53;;;20.50;99.90;;;;;;5075655;28;20206;-81
2022/10/10 12:11:48;;;;;;;7.13;3.45;;;21.00;99.90;;;;;;5075373;28;20198;-81
2022/10/10 12:14:19;;;;;;;6.57;3.35;;;20.70;99.90;;;;;;5075464;28;20198;-81
2022/10/10 12:16:46;;;;;;;10.82;3.30;;;20.50;99.90;;;;;;5075789;28;20726;-81
2022/10/10 12:19:19;;;;;;;7.82;2.90;;;20.40;99.90;;;;;;5075139;28;20689;-82
2022/10/10 12:22:00;;;;;;;7.63;3.22;;;20.10;99.90;;;;;;5076270;28;20208;-82
2022/10/10 12:24:29;;;;;;;9.32;4.13;;;20.30;99.90;;;;;;5076284;28;20198;-79
2022/10/10 12:27:42;;;;;;;6.72;3.70;;;20.50;99.90;;;;;;5078228;28;20226;-81
2022/10/10 12:30:27;;;;;;;6.70;3.40;;;20.00;99.90;;;;;;5075103;28;20698;-82
2022/10/10 12:32:54;;;;;;;9.45;3.67;;;20.20;99.90;;;;;;5075379;28;20577;-81
2022/10/10 12:35:34;;;;;;;6.28;3.08;;;20.20;99.90;;;;;;5073556;28;20217;-83
2022/10/10 12:38:20;;;;;;;7.53;3.60;;;20.70;62.80;;;;;;5074104;28;20693;-82
2022/10/10 12:41:15;;;;;;;6.97;3.28;;;20.50;90.00;;;;;;5075041;28;20575;-81
2022/10/10 12:43:48;;;;;;;6.85;3.28;;;20.10;99.90;;;;;;5067091;28;20206;-83
2022/10/10 12:46:26;;;;;;;9.75;3.25;;;20.50;99.90;;;;;;5063779;28;20202;-83
2022/10/10 12:49:02;;;;;;;5.40;3.20;;;20.20;99.90;;;;;;5069225;28;20206;-82
2022/10/10 12:51:32;;;;;;;6.22;3.70;;;20.10;99.90;;;;;;5063374;28;20230;-82
2022/10/10 12:54:02;;;;;;;7.53;3.03;;;20.30;99.90;;;;;;5072027;28;20205;-82
2022/10/10 12:56:35;;;;;;;6.53;3.28;;;20.20;99.90;;;;;;5066365;28;20206;-83
2022/10/10 12:59:06;;;;;;;7.03;3.10;;;20.30;99.90;;;;;;5073186;28;20683;-83
2022/10/10 13:01:44;;;;;;;6.55;3.33;;;20.70;99.90;;;;;;5071727;28;20570;-82
2022/10/10 13:04:15;;;;;;;8.68;3.70;;;20.60;99.90;;;;;;5068452;28;20209;-84
2022/10/10 13:06:44;;;;;;;6.78;3.40;;;20.30;99.90;;;;;;5063848;28;20226;-82
2022/10/10 13:09:16;;;;;;;6.53;3.28;;;20.50;99.90;;;;;;5068651;28;20574;-83
2022/10/10 13:11:55;;;;;;;5.50;3.17;;;20.30;99.90;;;;;;5071576;28;20222;-83